sensor_id;sensor_type;location;lat;lon;timestamp;temperature;humidity
55634;DHT22;41504;53.162;6.788;2022-07-22T00:02:06;15.70;90.70
55634;DHT22;41504;53.162;6.788;2022-07-22T00:04:32;15.70;90.50
55634;DHT22;41504;53.162;6.788;2022-07-22T00:06:58;15.70;90.50
55634;DHT22;41504;53.162;6.788;2022-07-22T00:09:23;15.80;90.40
55634;DHT22;41504;53.162;6.788;2022-07-22T00:11:50;15.80;90.30
55634;DHT22;41504;53.162;6.788;2022-07-22T00:14:16;15.80;90.30
55634;DHT22;41504;53.162;6.788;2022-07-22T00:16:42;15.80;90.20
55634;DHT22;41504;53.162;6.788;2022-07-22T00:19:08;15.80;90.20
55634;DHT22;41504;53.162;6.788;2022-07-22T00:21:34;15.90;90.10
55634;DHT22;41504;53.162;6.788;2022-07-22T00:24:00;15.90;90.00
55634;DHT22;41504;53.162;6.788;2022-07-22T00:26:25;15.90;89.90
55634;DHT22;41504;53.162;6.788;2022-07-22T00:28:51;15.90;90.00
55634;DHT22;41504;53.162;6.788;2022-07-22T00:31:17;15.90;89.30
55634;DHT22;41504;53.162;6.788;2022-07-22T00:33:42;15.90;89.30
55634;DHT22;41504;53.162;6.788;2022-07-22T00:36:08;15.90;89.40
55634;DHT22;41504;53.162;6.788;2022-07-22T00:38:34;15.90;89.30
55634;DHT22;41504;53.162;6.788;2022-07-22T00:41:01;15.90;89.40
55634;DHT22;41504;53.162;6.788;2022-07-22T00:43:26;15.90;89.20
55634;DHT22;41504;53.162;6.788;2022-07-22T00:45:52;15.90;89.10
55634;DHT22;41504;53.162;6.788;2022-07-22T00:48:18;15.90;88.90
55634;DHT22;41504;53.162;6.788;2022-07-22T00:50:45;15.90;89.00
55634;DHT22;41504;53.162;6.788;2022-07-22T00:53:11;15.90;89.10
55634;DHT22;41504;53.162;6.788;2022-07-22T00:55:38;15.90;89.00
55634;DHT22;41504;53.162;6.788;2022-07-22T00:58:04;15.90;88.90
55634;DHT22;41504;53.162;6.788;2022-07-22T01:00:30;15.90;88.80
55634;DHT22;41504;53.162;6.788;2022-07-22T01:02:56;15.90;88.70
55634;DHT22;41504;53.162;6.788;2022-07-22T01:05:22;15.90;88.80
55634;DHT22;41504;53.162;6.788;2022-07-22T01:07:48;15.90;88.80
55634;DHT22;41504;53.162;6.788;2022-07-22T01:10:14;15.90;88.70
55634;DHT22;41504;53.162;6.788;2022-07-22T01:12:40;15.90;88.30
55634;DHT22;41504;53.162;6.788;2022-07-22T01:15:06;15.90;88.10
55634;DHT22;41504;53.162;6.788;2022-07-22T01:17:32;15.90;87.90
55634;DHT22;41504;53.162;6.788;2022-07-22T01:20:04;15.90;87.90
55634;DHT22;41504;53.162;6.788;2022-07-22T01:22:31;15.90;87.60
55634;DHT22;41504;53.162;6.788;2022-07-22T01:24:56;15.90;87.50
55634;DHT22;41504;53.162;6.788;2022-07-22T01:27:22;15.90;87.50
55634;DHT22;41504;53.162;6.788;2022-07-22T01:29:48;15.90;87.20
55634;DHT22;41504;53.162;6.788;2022-07-22T01:32:14;15.90;86.80
55634;DHT22;41504;53.162;6.788;2022-07-22T01:34:39;15.90;86.30
55634;DHT22;41504;53.162;6.788;2022-07-22T01:37:05;15.90;86.50
55634;DHT22;41504;53.162;6.788;2022-07-22T01:39:31;15.90;86.40
55634;DHT22;41504;53.162;6.788;2022-07-22T01:41:56;15.80;86.70
55634;DHT22;41504;53.162;6.788;2022-07-22T01:44:22;15.80;86.40
55634;DHT22;41504;53.162;6.788;2022-07-22T01:46:48;15.80;86.80
55634;DHT22;41504;53.162;6.788;2022-07-22T01:49:15;15.80;86.70
55634;DHT22;41504;53.162;6.788;2022-07-22T01:51:41;15.80;86.80
55634;DHT22;41504;53.162;6.788;2022-07-22T01:54:07;15.80;86.50
55634;DHT22;41504;53.162;6.788;2022-07-22T01:56:33;15.90;86.30
55634;DHT22;41504;53.162;6.788;2022-07-22T01:58:58;15.80;86.10
55634;DHT22;41504;53.162;6.788;2022-07-22T02:01:24;15.90;86.30
55634;DHT22;41504;53.162;6.788;2022-07-22T02:03:50;15.80;86.10
55634;DHT22;41504;53.162;6.788;2022-07-22T02:06:16;15.80;86.40
55634;DHT22;41504;53.162;6.788;2022-07-22T02:08:42;15.80;85.90
55634;DHT22;41504;53.162;6.788;2022-07-22T02:11:07;15.80;85.90
55634;DHT22;41504;53.162;6.788;2022-07-22T02:13:33;15.80;85.50
55634;DHT22;41504;53.162;6.788;2022-07-22T02:15:59;15.80;85.50
55634;DHT22;41504;53.162;6.788;2022-07-22T02:18:24;15.80;85.60
55634;DHT22;41504;53.162;6.788;2022-07-22T02:20:51;15.80;85.40
55634;DHT22;41504;53.162;6.788;2022-07-22T02:23:16;15.80;85.40
55634;DHT22;41504;53.162;6.788;2022-07-22T02:25:43;15.80;85.30
55634;DHT22;41504;53.162;6.788;2022-07-22T02:28:08;15.80;85.30
55634;DHT22;41504;53.162;6.788;2022-07-22T02:30:34;15.80;85.20
55634;DHT22;41504;53.162;6.788;2022-07-22T02:33:00;15.80;85.10
55634;DHT22;41504;53.162;6.788;2022-07-22T02:35:26;15.80;85.00
55634;DHT22;41504;53.162;6.788;2022-07-22T02:37:52;15.80;85.00
55634;DHT22;41504;53.162;6.788;2022-07-22T02:40:17;15.80;84.60
55634;DHT22;41504;53.162;6.788;2022-07-22T02:42:43;15.80;84.30
55634;DHT22;41504;53.162;6.788;2022-07-22T02:45:09;15.80;84.30
55634;DHT22;41504;53.162;6.788;2022-07-22T02:47:43;15.80;84.20
55634;DHT22;41504;53.162;6.788;2022-07-22T02:50:09;15.80;83.80
55634;DHT22;41504;53.162;6.788;2022-07-22T02:52:35;15.80;84.20
55634;DHT22;41504;53.162;6.788;2022-07-22T02:55:00;15.80;84.30
55634;DHT22;41504;53.162;6.788;2022-07-22T02:57:26;15.80;84.10
55634;DHT22;41504;53.162;6.788;2022-07-22T02:59:52;15.80;83.90
55634;DHT22;41504;53.162;6.788;2022-07-22T03:02:17;15.80;83.80
55634;DHT22;41504;53.162;6.788;2022-07-22T03:04:43;15.70;83.90
55634;DHT22;41504;53.162;6.788;2022-07-22T03:07:09;15.80;83.90
55634;DHT22;41504;53.162;6.788;2022-07-22T03:09:34;15.80;83.50
55634;DHT22;41504;53.162;6.788;2022-07-22T03:12:00;15.80;83.70
55634;DHT22;41504;53.162;6.788;2022-07-22T03:14:26;15.80;83.80
55634;DHT22;41504;53.162;6.788;2022-07-22T03:16:51;15.80;83.70
55634;DHT22;41504;53.162;6.788;2022-07-22T03:19:17;15.80;83.80
55634;DHT22;41504;53.162;6.788;2022-07-22T03:21:43;15.80;84.40
55634;DHT22;41504;53.162;6.788;2022-07-22T03:24:08;15.80;83.90
55634;DHT22;41504;53.162;6.788;2022-07-22T03:26:34;15.80;84.00
55634;DHT22;41504;53.162;6.788;2022-07-22T03:29:00;15.80;83.90
55634;DHT22;41504;53.162;6.788;2022-07-22T03:31:26;15.80;83.80
55634;DHT22;41504;53.162;6.788;2022-07-22T03:33:52;15.80;83.80
55634;DHT22;41504;53.162;6.788;2022-07-22T03:36:18;15.80;83.80
55634;DHT22;41504;53.162;6.788;2022-07-22T03:38:43;15.80;83.60
55634;DHT22;41504;53.162;6.788;2022-07-22T03:41:09;15.80;83.50
55634;DHT22;41504;53.162;6.788;2022-07-22T03:43:35;15.80;83.50
55634;DHT22;41504;53.162;6.788;2022-07-22T03:46:00;15.80;83.40
55634;DHT22;41504;53.162;6.788;2022-07-22T03:48:26;15.80;83.40
55634;DHT22;41504;53.162;6.788;2022-07-22T03:50:52;15.80;83.30
55634;DHT22;41504;53.162;6.788;2022-07-22T03:53:18;15.80;83.30
55634;DHT22;41504;53.162;6.788;2022-07-22T03:55:43;15.80;83.30
55634;DHT22;41504;53.162;6.788;2022-07-22T03:58:09;15.80;82.90
55634;DHT22;41504;53.162;6.788;2022-07-22T04:00:35;15.80;82.80
55634;DHT22;41504;53.162;6.788;2022-07-22T04:03:00;15.80;82.80
55634;DHT22;41504;53.162;6.788;2022-07-22T04:05:26;15.80;82.70
55634;DHT22;41504;53.162;6.788;2022-07-22T04:07:52;15.80;82.30
55634;DHT22;41504;53.162;6.788;2022-07-22T04:10:17;15.80;82.50
55634;DHT22;41504;53.162;6.788;2022-07-22T04:12:43;15.80;82.20
55634;DHT22;41504;53.162;6.788;2022-07-22T04:15:09;15.80;82.30
55634;DHT22;41504;53.162;6.788;2022-07-22T04:17:35;15.80;81.90
55634;DHT22;41504;53.162;6.788;2022-07-22T04:20:01;15.80;81.70
55634;DHT22;41504;53.162;6.788;2022-07-22T04:22:27;15.80;81.90
55634;DHT22;41504;53.162;6.788;2022-07-22T04:24:53;15.80;82.00
55634;DHT22;41504;53.162;6.788;2022-07-22T04:27:19;15.70;82.00
55634;DHT22;41504;53.162;6.788;2022-07-22T04:29:44;15.70;81.90
55634;DHT22;41504;53.162;6.788;2022-07-22T04:32:10;15.80;82.00
55634;DHT22;41504;53.162;6.788;2022-07-22T04:34:36;15.80;81.90
55634;DHT22;41504;53.162;6.788;2022-07-22T04:37:01;15.80;82.40
55634;DHT22;41504;53.162;6.788;2022-07-22T04:39:27;15.80;81.70
55634;DHT22;41504;53.162;6.788;2022-07-22T04:41:53;15.80;81.80
55634;DHT22;41504;53.162;6.788;2022-07-22T04:44:18;15.80;81.60
55634;DHT22;41504;53.162;6.788;2022-07-22T04:46:44;15.80;81.60
55634;DHT22;41504;53.162;6.788;2022-07-22T04:49:10;15.80;81.70
55634;DHT22;41504;53.162;6.788;2022-07-22T04:51:36;15.80;81.70
55634;DHT22;41504;53.162;6.788;2022-07-22T04:54:01;15.80;81.30
55634;DHT22;41504;53.162;6.788;2022-07-22T04:56:27;15.80;81.20
55634;DHT22;41504;53.162;6.788;2022-07-22T04:58:53;15.80;81.30
55634;DHT22;41504;53.162;6.788;2022-07-22T05:01:19;15.80;81.30
55634;DHT22;41504;53.162;6.788;2022-07-22T05:03:44;15.80;81.10
55634;DHT22;41504;53.162;6.788;2022-07-22T05:06:10;15.90;81.10
55634;DHT22;41504;53.162;6.788;2022-07-22T05:08:36;15.90;80.90
55634;DHT22;41504;53.162;6.788;2022-07-22T05:11:02;15.80;80.90
55634;DHT22;41504;53.162;6.788;2022-07-22T05:13:27;15.80;80.70
55634;DHT22;41504;53.162;6.788;2022-07-22T05:15:53;15.90;80.80
55634;DHT22;41504;53.162;6.788;2022-07-22T05:18:19;15.80;80.60
55634;DHT22;41504;53.162;6.788;2022-07-22T05:20:45;15.80;80.60
55634;DHT22;41504;53.162;6.788;2022-07-22T05:23:10;15.90;80.40
55634;DHT22;41504;53.162;6.788;2022-07-22T05:25:36;15.90;80.00
55634;DHT22;41504;53.162;6.788;2022-07-22T05:28:02;15.90;80.10
55634;DHT22;41504;53.162;6.788;2022-07-22T05:30:28;15.90;79.90
55634;DHT22;41504;53.162;6.788;2022-07-22T05:32:54;15.90;79.40
55634;DHT22;41504;53.162;6.788;2022-07-22T05:35:20;15.90;79.90
55634;DHT22;41504;53.162;6.788;2022-07-22T05:37:47;15.80;80.10
55634;DHT22;41504;53.162;6.788;2022-07-22T05:40:12;15.90;80.20
55634;DHT22;41504;53.162;6.788;2022-07-22T05:42:38;15.90;80.10
55634;DHT22;41504;53.162;6.788;2022-07-22T05:45:04;16.00;79.60
55634;DHT22;41504;53.162;6.788;2022-07-22T05:47:30;16.00;79.60
55634;DHT22;41504;53.162;6.788;2022-07-22T05:49:56;16.00;79.70
55634;DHT22;41504;53.162;6.788;2022-07-22T05:52:21;16.00;79.00
55634;DHT22;41504;53.162;6.788;2022-07-22T05:54:47;16.00;77.90
55634;DHT22;41504;53.162;6.788;2022-07-22T05:57:13;15.90;78.50
55634;DHT22;41504;53.162;6.788;2022-07-22T05:59:39;15.90;78.50
55634;DHT22;41504;53.162;6.788;2022-07-22T06:02:06;15.90;78.20
55634;DHT22;41504;53.162;6.788;2022-07-22T06:04:31;15.90;78.00
55634;DHT22;41504;53.162;6.788;2022-07-22T06:06:57;15.90;78.20
55634;DHT22;41504;53.162;6.788;2022-07-22T06:09:23;15.90;78.00
55634;DHT22;41504;53.162;6.788;2022-07-22T06:11:48;16.00;78.20
55634;DHT22;41504;53.162;6.788;2022-07-22T06:14:14;16.00;77.40
55634;DHT22;41504;53.162;6.788;2022-07-22T06:16:40;16.10;77.70
55634;DHT22;41504;53.162;6.788;2022-07-22T06:19:05;16.00;76.90
55634;DHT22;41504;53.162;6.788;2022-07-22T06:21:31;16.10;77.10
55634;DHT22;41504;53.162;6.788;2022-07-22T06:23:57;16.10;76.80
55634;DHT22;41504;53.162;6.788;2022-07-22T06:26:23;16.10;77.00
55634;DHT22;41504;53.162;6.788;2022-07-22T06:28:48;16.10;76.80
55634;DHT22;41504;53.162;6.788;2022-07-22T06:31:14;16.10;76.60
55634;DHT22;41504;53.162;6.788;2022-07-22T06:33:40;16.20;76.90
55634;DHT22;41504;53.162;6.788;2022-07-22T06:36:06;16.20;76.80
55634;DHT22;41504;53.162;6.788;2022-07-22T06:38:32;16.20;76.40
55634;DHT22;41504;53.162;6.788;2022-07-22T06:40:57;16.30;75.80
55634;DHT22;41504;53.162;6.788;2022-07-22T06:43:23;16.30;75.60
55634;DHT22;41504;53.162;6.788;2022-07-22T06:45:49;16.30;75.60
55634;DHT22;41504;53.162;6.788;2022-07-22T06:48:16;16.20;75.90
55634;DHT22;41504;53.162;6.788;2022-07-22T06:50:41;16.30;75.70
55634;DHT22;41504;53.162;6.788;2022-07-22T06:53:07;16.30;75.80
55634;DHT22;41504;53.162;6.788;2022-07-22T06:55:33;16.30;75.80
55634;DHT22;41504;53.162;6.788;2022-07-22T06:57:58;16.30;76.00
55634;DHT22;41504;53.162;6.788;2022-07-22T07:00:24;16.40;75.90
55634;DHT22;41504;53.162;6.788;2022-07-22T07:02:50;16.40;75.60
55634;DHT22;41504;53.162;6.788;2022-07-22T07:05:15;16.50;74.80
55634;DHT22;41504;53.162;6.788;2022-07-22T07:07:41;16.50;74.80
55634;DHT22;41504;53.162;6.788;2022-07-22T07:10:07;16.50;74.80
55634;DHT22;41504;53.162;6.788;2022-07-22T07:12:35;16.50;74.90
55634;DHT22;41504;53.162;6.788;2022-07-22T07:15:01;16.60;74.80
55634;DHT22;41504;53.162;6.788;2022-07-22T07:17:27;16.60;74.90
55634;DHT22;41504;53.162;6.788;2022-07-22T07:19:52;16.70;74.80
55634;DHT22;41504;53.162;6.788;2022-07-22T07:22:18;16.70;74.70
55634;DHT22;41504;53.162;6.788;2022-07-22T07:24:44;16.70;74.30
55634;DHT22;41504;53.162;6.788;2022-07-22T07:27:09;16.80;74.40
55634;DHT22;41504;53.162;6.788;2022-07-22T07:29:35;16.80;74.40
55634;DHT22;41504;53.162;6.788;2022-07-22T07:32:01;16.90;74.00
55634;DHT22;41504;53.162;6.788;2022-07-22T07:34:27;16.90;73.50
55634;DHT22;41504;53.162;6.788;2022-07-22T07:36:52;16.90;73.80
55634;DHT22;41504;53.162;6.788;2022-07-22T07:39:18;16.90;73.10
55634;DHT22;41504;53.162;6.788;2022-07-22T07:41:44;17.00;73.20
55634;DHT22;41504;53.162;6.788;2022-07-22T07:44:10;17.00;72.70
55634;DHT22;41504;53.162;6.788;2022-07-22T07:46:35;17.00;72.80
55634;DHT22;41504;53.162;6.788;2022-07-22T07:49:01;17.00;72.20
55634;DHT22;41504;53.162;6.788;2022-07-22T07:51:27;17.10;72.40
55634;DHT22;41504;53.162;6.788;2022-07-22T07:53:52;17.10;71.90
55634;DHT22;41504;53.162;6.788;2022-07-22T07:56:18;17.10;71.40
55634;DHT22;41504;53.162;6.788;2022-07-22T07:58:44;17.00;71.20
55634;DHT22;41504;53.162;6.788;2022-07-22T08:01:09;17.10;71.60
55634;DHT22;41504;53.162;6.788;2022-07-22T08:03:35;17.10;71.50
55634;DHT22;41504;53.162;6.788;2022-07-22T08:06:01;17.10;71.00
55634;DHT22;41504;53.162;6.788;2022-07-22T08:08:27;17.20;71.50
55634;DHT22;41504;53.162;6.788;2022-07-22T08:10:53;17.20;71.30
55634;DHT22;41504;53.162;6.788;2022-07-22T08:13:18;17.20;71.10
55634;DHT22;41504;53.162;6.788;2022-07-22T08:15:44;17.30;71.00
55634;DHT22;41504;53.162;6.788;2022-07-22T08:18:10;17.30;71.10
55634;DHT22;41504;53.162;6.788;2022-07-22T08:20:35;17.30;71.30
55634;DHT22;41504;53.162;6.788;2022-07-22T08:23:01;17.30;70.10
55634;DHT22;41504;53.162;6.788;2022-07-22T08:25:27;17.30;70.50
55634;DHT22;41504;53.162;6.788;2022-07-22T08:27:53;17.30;70.30
55634;DHT22;41504;53.162;6.788;2022-07-22T08:30:19;17.30;70.20
55634;DHT22;41504;53.162;6.788;2022-07-22T08:32:46;17.30;69.90
55634;DHT22;41504;53.162;6.788;2022-07-22T08:35:12;17.30;69.60
55634;DHT22;41504;53.162;6.788;2022-07-22T08:37:38;17.30;70.20
55634;DHT22;41504;53.162;6.788;2022-07-22T08:40:06;17.30;69.80
55634;DHT22;41504;53.162;6.788;2022-07-22T08:42:42;17.40;69.50
55634;DHT22;41504;53.162;6.788;2022-07-22T08:45:08;17.40;69.90
55634;DHT22;41504;53.162;6.788;2022-07-22T08:47:37;17.50;69.10
55634;DHT22;41504;53.162;6.788;2022-07-22T08:50:04;17.50;70.00
55634;DHT22;41504;53.162;6.788;2022-07-22T08:52:30;17.50;69.60
55634;DHT22;41504;53.162;6.788;2022-07-22T08:54:58;17.60;69.10
55634;DHT22;41504;53.162;6.788;2022-07-22T08:57:24;17.60;69.30
55634;DHT22;41504;53.162;6.788;2022-07-22T08:59:57;17.60;68.90
55634;DHT22;41504;53.162;6.788;2022-07-22T09:02:24;17.60;68.80
55634;DHT22;41504;53.162;6.788;2022-07-22T09:05:04;17.50;68.90
55634;DHT22;41504;53.162;6.788;2022-07-22T09:07:39;17.60;68.40
55634;DHT22;41504;53.162;6.788;2022-07-22T09:10:10;17.50;68.10
55634;DHT22;41504;53.162;6.788;2022-07-22T09:13:02;17.50;68.90
55634;DHT22;41504;53.162;6.788;2022-07-22T09:15:37;17.50;69.10
55634;DHT22;41504;53.162;6.788;2022-07-22T09:18:04;17.50;69.40
55634;DHT22;41504;53.162;6.788;2022-07-22T09:20:30;17.50;68.80
55634;DHT22;41504;53.162;6.788;2022-07-22T09:22:56;17.50;68.90
55634;DHT22;41504;53.162;6.788;2022-07-22T09:25:33;17.50;69.30
55634;DHT22;41504;53.162;6.788;2022-07-22T09:30:34;17.60;69.10
55634;DHT22;41504;53.162;6.788;2022-07-22T09:33:00;17.60;69.50
55634;DHT22;41504;53.162;6.788;2022-07-22T09:35:27;17.60;69.80
55634;DHT22;41504;53.162;6.788;2022-07-22T09:38:02;17.70;69.90
55634;DHT22;41504;53.162;6.788;2022-07-22T09:40:30;17.80;69.40
55634;DHT22;41504;53.162;6.788;2022-07-22T09:43:02;17.70;69.50
55634;DHT22;41504;53.162;6.788;2022-07-22T09:45:30;17.70;69.40
55634;DHT22;41504;53.162;6.788;2022-07-22T09:47:58;17.70;69.00
55634;DHT22;41504;53.162;6.788;2022-07-22T09:50:29;17.60;69.30
55634;DHT22;41504;53.162;6.788;2022-07-22T09:52:56;17.50;69.70
55634;DHT22;41504;53.162;6.788;2022-07-22T09:55:24;17.50;70.10
55634;DHT22;41504;53.162;6.788;2022-07-22T09:57:51;17.50;69.90
55634;DHT22;41504;53.162;6.788;2022-07-22T10:00:20;17.60;69.60
55634;DHT22;41504;53.162;6.788;2022-07-22T10:02:49;17.60;69.80
55634;DHT22;41504;53.162;6.788;2022-07-22T10:05:18;17.60;69.90
55634;DHT22;41504;53.162;6.788;2022-07-22T10:07:45;17.70;70.10
55634;DHT22;41504;53.162;6.788;2022-07-22T10:10:14;17.70;69.70
55634;DHT22;41504;53.162;6.788;2022-07-22T10:12:40;17.80;69.30
55634;DHT22;41504;53.162;6.788;2022-07-22T10:15:08;17.80;69.20
55634;DHT22;41504;53.162;6.788;2022-07-22T10:17:36;17.90;69.10
55634;DHT22;41504;53.162;6.788;2022-07-22T10:20:03;17.90;68.90
55634;DHT22;41504;53.162;6.788;2022-07-22T10:25:06;18.00;68.50
55634;DHT22;41504;53.162;6.788;2022-07-22T10:27:50;18.00;68.40
55634;DHT22;41504;53.162;6.788;2022-07-22T10:35:32;18.00;68.00
55634;DHT22;41504;53.162;6.788;2022-07-22T10:38:00;18.00;69.20
55634;DHT22;41504;53.162;6.788;2022-07-22T10:40:28;18.00;68.60
55634;DHT22;41504;53.162;6.788;2022-07-22T10:45:27;18.00;67.90
55634;DHT22;41504;53.162;6.788;2022-07-22T10:48:02;17.90;67.40
55634;DHT22;41504;53.162;6.788;2022-07-22T10:53:14;18.10;67.80
55634;DHT22;41504;53.162;6.788;2022-07-22T10:58:48;18.20;67.50
55634;DHT22;41504;53.162;6.788;2022-07-22T11:01:16;18.20;67.40
55634;DHT22;41504;53.162;6.788;2022-07-22T11:03:44;18.20;66.40
55634;DHT22;41504;53.162;6.788;2022-07-22T11:06:23;18.20;66.60
55634;DHT22;41504;53.162;6.788;2022-07-22T11:08:55;18.30;67.10
55634;DHT22;41504;53.162;6.788;2022-07-22T11:11:43;18.40;67.40
55634;DHT22;41504;53.162;6.788;2022-07-22T11:14:17;18.60;68.20
55634;DHT22;41504;53.162;6.788;2022-07-22T11:16:44;18.70;68.20
55634;DHT22;41504;53.162;6.788;2022-07-22T11:19:09;19.00;67.90
55634;DHT22;41504;53.162;6.788;2022-07-22T11:21:35;19.00;67.30
55634;DHT22;41504;53.162;6.788;2022-07-22T11:24:04;19.10;67.90
55634;DHT22;41504;53.162;6.788;2022-07-22T11:26:44;19.20;67.00
55634;DHT22;41504;53.162;6.788;2022-07-22T11:29:28;19.20;67.30
55634;DHT22;41504;53.162;6.788;2022-07-22T11:31:58;19.20;66.40
55634;DHT22;41504;53.162;6.788;2022-07-22T11:34:25;19.20;66.10
55634;DHT22;41504;53.162;6.788;2022-07-22T11:36:51;19.20;66.00
55634;DHT22;41504;53.162;6.788;2022-07-22T11:39:24;19.10;65.90
55634;DHT22;41504;53.162;6.788;2022-07-22T11:41:52;19.00;66.80
55634;DHT22;41504;53.162;6.788;2022-07-22T11:44:23;19.00;66.30
55634;DHT22;41504;53.162;6.788;2022-07-22T11:46:49;19.00;66.00
55634;DHT22;41504;53.162;6.788;2022-07-22T11:49:17;18.90;66.40
55634;DHT22;41504;53.162;6.788;2022-07-22T11:51:44;18.90;67.10
55634;DHT22;41504;53.162;6.788;2022-07-22T11:54:09;18.90;67.40
55634;DHT22;41504;53.162;6.788;2022-07-22T11:56:36;18.80;66.50
55634;DHT22;41504;53.162;6.788;2022-07-22T11:59:03;18.70;66.40
55634;DHT22;41504;53.162;6.788;2022-07-22T12:01:32;18.60;66.80
55634;DHT22;41504;53.162;6.788;2022-07-22T12:04:06;18.50;66.90
55634;DHT22;41504;53.162;6.788;2022-07-22T12:06:35;18.60;67.20
55634;DHT22;41504;53.162;6.788;2022-07-22T12:09:10;18.60;66.80
55634;DHT22;41504;53.162;6.788;2022-07-22T12:11:38;18.50;67.20
55634;DHT22;41504;53.162;6.788;2022-07-22T12:14:19;18.50;66.90
55634;DHT22;41504;53.162;6.788;2022-07-22T12:17:07;18.40;67.10
55634;DHT22;41504;53.162;6.788;2022-07-22T12:19:36;18.30;67.40
55634;DHT22;41504;53.162;6.788;2022-07-22T12:22:09;18.30;67.40
55634;DHT22;41504;53.162;6.788;2022-07-22T12:24:43;18.30;67.40
55634;DHT22;41504;53.162;6.788;2022-07-22T12:27:12;18.30;67.70
55634;DHT22;41504;53.162;6.788;2022-07-22T12:32:09;18.30;68.40
55634;DHT22;41504;53.162;6.788;2022-07-22T12:34:44;18.30;68.00
55634;DHT22;41504;53.162;6.788;2022-07-22T12:37:25;18.30;68.10
55634;DHT22;41504;53.162;6.788;2022-07-22T12:39:55;18.30;68.30
55634;DHT22;41504;53.162;6.788;2022-07-22T12:42:21;18.30;67.90
55634;DHT22;41504;53.162;6.788;2022-07-22T12:45:03;18.30;68.00
55634;DHT22;41504;53.162;6.788;2022-07-22T12:50:32;18.30;67.90
55634;DHT22;41504;53.162;6.788;2022-07-22T12:53:02;18.30;67.90
55634;DHT22;41504;53.162;6.788;2022-07-22T12:55:30;18.30;67.90
55634;DHT22;41504;53.162;6.788;2022-07-22T12:57:56;18.40;68.30
55634;DHT22;41504;53.162;6.788;2022-07-22T13:00:24;18.40;67.30
55634;DHT22;41504;53.162;6.788;2022-07-22T13:02:51;18.50;67.00
55634;DHT22;41504;53.162;6.788;2022-07-22T13:05:17;18.50;67.80
55634;DHT22;41504;53.162;6.788;2022-07-22T13:07:43;18.60;67.50
55634;DHT22;41504;53.162;6.788;2022-07-22T13:10:11;18.60;67.30
55634;DHT22;41504;53.162;6.788;2022-07-22T13:12:37;18.60;67.40
55634;DHT22;41504;53.162;6.788;2022-07-22T13:15:03;18.60;67.50
55634;DHT22;41504;53.162;6.788;2022-07-22T13:17:29;18.60;67.30
55634;DHT22;41504;53.162;6.788;2022-07-22T13:19:54;18.60;67.40
55634;DHT22;41504;53.162;6.788;2022-07-22T13:22:20;18.70;67.80
55634;DHT22;41504;53.162;6.788;2022-07-22T13:24:46;19.00;67.20
55634;DHT22;41504;53.162;6.788;2022-07-22T13:27:12;19.20;66.80
55634;DHT22;41504;53.162;6.788;2022-07-22T13:29:38;19.30;66.50
55634;DHT22;41504;53.162;6.788;2022-07-22T13:32:04;19.50;65.60
55634;DHT22;41504;53.162;6.788;2022-07-22T13:34:31;19.60;65.30
55634;DHT22;41504;53.162;6.788;2022-07-22T13:36:57;19.60;65.40
55634;DHT22;41504;53.162;6.788;2022-07-22T13:39:23;19.60;66.00
55634;DHT22;41504;53.162;6.788;2022-07-22T13:41:49;19.70;66.00
55634;DHT22;41504;53.162;6.788;2022-07-22T13:44:15;19.80;65.50
55634;DHT22;41504;53.162;6.788;2022-07-22T13:46:41;19.60;65.00
55634;DHT22;41504;53.162;6.788;2022-07-22T13:49:07;19.50;66.00
55634;DHT22;41504;53.162;6.788;2022-07-22T13:51:33;19.50;66.00
55634;DHT22;41504;53.162;6.788;2022-07-22T13:53:58;19.50;65.90
55634;DHT22;41504;53.162;6.788;2022-07-22T13:56:25;19.50;65.50
55634;DHT22;41504;53.162;6.788;2022-07-22T13:58:51;19.40;65.40
55634;DHT22;41504;53.162;6.788;2022-07-22T14:01:17;19.30;66.20
55634;DHT22;41504;53.162;6.788;2022-07-22T14:03:42;19.30;66.00
55634;DHT22;41504;53.162;6.788;2022-07-22T14:06:08;19.40;66.30
55634;DHT22;41504;53.162;6.788;2022-07-22T14:08:35;19.60;65.90
55634;DHT22;41504;53.162;6.788;2022-07-22T14:11:02;19.60;64.90
55634;DHT22;41504;53.162;6.788;2022-07-22T14:13:28;19.50;64.30
55634;DHT22;41504;53.162;6.788;2022-07-22T14:15:53;19.40;64.60
55634;DHT22;41504;53.162;6.788;2022-07-22T14:18:19;19.40;64.80
55634;DHT22;41504;53.162;6.788;2022-07-22T14:20:45;19.40;64.90
55634;DHT22;41504;53.162;6.788;2022-07-22T14:23:11;19.30;65.00
55634;DHT22;41504;53.162;6.788;2022-07-22T14:25:37;19.30;64.90
55634;DHT22;41504;53.162;6.788;2022-07-22T14:28:04;19.20;65.30
55634;DHT22;41504;53.162;6.788;2022-07-22T14:30:31;19.10;65.10
55634;DHT22;41504;53.162;6.788;2022-07-22T14:32:56;19.00;65.20
55634;DHT22;41504;53.162;6.788;2022-07-22T14:35:22;18.80;66.20
55634;DHT22;41504;53.162;6.788;2022-07-22T14:37:48;18.70;66.90
55634;DHT22;41504;53.162;6.788;2022-07-22T14:40:14;18.70;67.30
55634;DHT22;41504;53.162;6.788;2022-07-22T14:42:40;18.60;67.10
55634;DHT22;41504;53.162;6.788;2022-07-22T14:45:08;18.50;66.80
55634;DHT22;41504;53.162;6.788;2022-07-22T14:47:38;18.30;67.40
55634;DHT22;41504;53.162;6.788;2022-07-22T14:50:05;18.30;67.40
55634;DHT22;41504;53.162;6.788;2022-07-22T14:52:31;18.20;67.50
55634;DHT22;41504;53.162;6.788;2022-07-22T14:54:57;18.10;67.70
55634;DHT22;41504;53.162;6.788;2022-07-22T14:57:23;18.20;68.10
55634;DHT22;41504;53.162;6.788;2022-07-22T14:59:49;18.30;68.30
55634;DHT22;41504;53.162;6.788;2022-07-22T15:02:14;18.30;68.00
55634;DHT22;41504;53.162;6.788;2022-07-22T15:04:40;18.40;67.50
55634;DHT22;41504;53.162;6.788;2022-07-22T15:07:06;18.40;67.70
55634;DHT22;41504;53.162;6.788;2022-07-22T15:09:32;18.40;68.00
55634;DHT22;41504;53.162;6.788;2022-07-22T15:11:57;18.50;67.50
55634;DHT22;41504;53.162;6.788;2022-07-22T15:14:23;18.50;67.60
55634;DHT22;41504;53.162;6.788;2022-07-22T15:16:49;18.50;67.80
55634;DHT22;41504;53.162;6.788;2022-07-22T15:19:14;18.60;67.60
55634;DHT22;41504;53.162;6.788;2022-07-22T15:21:40;18.50;67.20
55634;DHT22;41504;53.162;6.788;2022-07-22T15:24:06;18.50;67.60
55634;DHT22;41504;53.162;6.788;2022-07-22T15:26:34;18.50;66.70
55634;DHT22;41504;53.162;6.788;2022-07-22T15:28:59;18.40;66.40
55634;DHT22;41504;53.162;6.788;2022-07-22T15:31:26;18.30;66.80
55634;DHT22;41504;53.162;6.788;2022-07-22T15:33:53;18.30;66.80
55634;DHT22;41504;53.162;6.788;2022-07-22T15:36:19;18.40;67.10
55634;DHT22;41504;53.162;6.788;2022-07-22T15:38:45;18.40;66.80
55634;DHT22;41504;53.162;6.788;2022-07-22T15:41:11;18.40;66.60
55634;DHT22;41504;53.162;6.788;2022-07-22T15:43:38;18.40;66.70
55634;DHT22;41504;53.162;6.788;2022-07-22T15:46:05;18.30;66.70
55634;DHT22;41504;53.162;6.788;2022-07-22T15:48:31;18.30;66.60
55634;DHT22;41504;53.162;6.788;2022-07-22T15:50:57;18.20;66.60
55634;DHT22;41504;53.162;6.788;2022-07-22T15:53:23;18.20;66.70